sensor_id;sensor_type;location;lat;lon;timestamp;P1;durP1;ratioP1;P2;durP2;ratioP2
2029;SDS011;1020;48.854;8.830;2023-07-29T00:01:00;1.43;;;1.10;;
2029;SDS011;1020;48.854;8.830;2023-07-29T00:03:26;2.30;;;1.30;;
2029;SDS011;1020;48.854;8.830;2023-07-29T00:05:55;1.60;;;1.30;;
2029;SDS011;1020;48.854;8.830;2023-07-29T00:08:21;1.60;;;1.10;;
2029;SDS011;1020;48.854;8.830;2023-07-29T00:10:50;4.83;;;1.17;;
2029;SDS011;1020;48.854;8.830;2023-07-29T00:13:16;1.40;;;1.30;;
2029;SDS011;1020;48.854;8.830;2023-07-29T00:15:43;3.80;;;1.33;;
2029;SDS011;1020;48.854;8.830;2023-07-29T00:18:10;1.90;;;1.80;;
2029;SDS011;1020;48.854;8.830;2023-07-29T00:20:37;3.10;;;2.90;;
2029;SDS011;1020;48.854;8.830;2023-07-29T00:23:03;2.33;;;2.20;;
2029;SDS011;1020;48.854;8.830;2023-07-29T00:25:30;2.97;;;2.23;;
2029;SDS011;1020;48.854;8.830;2023-07-29T00:27:58;1.77;;;1.67;;
2029;SDS011;1020;48.854;8.830;2023-07-29T00:30:25;1.70;;;1.40;;
2029;SDS011;1020;48.854;8.830;2023-07-29T00:32:52;1.60;;;1.50;;
2029;SDS011;1020;48.854;8.830;2023-07-29T00:35:18;3.23;;;1.60;;
2029;SDS011;1020;48.854;8.830;2023-07-29T00:37:45;1.67;;;1.00;;
2029;SDS011;1020;48.854;8.830;2023-07-29T00:40:14;1.50;;;1.40;;
2029;SDS011;1020;48.854;8.830;2023-07-29T00:42:45;2.10;;;1.10;;
2029;SDS011;1020;48.854;8.830;2023-07-29T00:45:13;1.43;;;1.33;;
2029;SDS011;1020;48.854;8.830;2023-07-29T00:47:40;1.60;;;1.50;;
2029;SDS011;1020;48.854;8.830;2023-07-29T00:50:08;2.27;;;2.17;;
2029;SDS011;1020;48.854;8.830;2023-07-29T00:52:37;2.30;;;2.20;;
2029;SDS011;1020;48.854;8.830;2023-07-29T00:55:04;1.87;;;1.77;;
2029;SDS011;1020;48.854;8.830;2023-07-29T00:57:32;1.90;;;1.80;;
2029;SDS011;1020;48.854;8.830;2023-07-29T00:59:59;2.07;;;1.97;;
2029;SDS011;1020;48.854;8.830;2023-07-29T01:02:29;1.80;;;1.70;;
2029;SDS011;1020;48.854;8.830;2023-07-29T01:04:58;1.63;;;1.53;;
2029;SDS011;1020;48.854;8.830;2023-07-29T01:07:27;1.20;;;1.20;;
2029;SDS011;1020;48.854;8.830;2023-07-29T01:09:58;1.87;;;1.33;;
2029;SDS011;1020;48.854;8.830;2023-07-29T01:12:31;1.70;;;1.60;;
2029;SDS011;1020;48.854;8.830;2023-07-29T01:15:06;1.80;;;1.70;;
2029;SDS011;1020;48.854;8.830;2023-07-29T01:17:39;1.23;;;1.20;;
2029;SDS011;1020;48.854;8.830;2023-07-29T01:20:09;1.43;;;1.40;;
2029;SDS011;1020;48.854;8.830;2023-07-29T01:22:39;1.87;;;1.77;;
2029;SDS011;1020;48.854;8.830;2023-07-29T01:25:07;1.50;;;1.40;;
2029;SDS011;1020;48.854;8.830;2023-07-29T01:27:34;1.93;;;1.50;;
2029;SDS011;1020;48.854;8.830;2023-07-29T01:30:01;3.00;;;2.20;;
2029;SDS011;1020;48.854;8.830;2023-07-29T01:32:34;2.10;;;2.00;;
2029;SDS011;1020;48.854;8.830;2023-07-29T01:35:08;1.73;;;1.63;;
2029;SDS011;1020;48.854;8.830;2023-07-29T01:37:41;2.10;;;1.63;;
2029;SDS011;1020;48.854;8.830;2023-07-29T01:40:11;1.70;;;1.60;;
2029;SDS011;1020;48.854;8.830;2023-07-29T01:42:39;1.67;;;1.30;;
2029;SDS011;1020;48.854;8.830;2023-07-29T01:45:06;2.33;;;1.70;;
2029;SDS011;1020;48.854;8.830;2023-07-29T01:47:33;2.00;;;1.90;;
2029;SDS011;1020;48.854;8.830;2023-07-29T01:50:00;1.43;;;1.27;;
2029;SDS011;1020;48.854;8.830;2023-07-29T01:52:28;3.27;;;1.80;;
2029;SDS011;1020;48.854;8.830;2023-07-29T01:54:55;1.73;;;1.37;;
2029;SDS011;1020;48.854;8.830;2023-07-29T01:57:23;1.50;;;1.40;;
2029;SDS011;1020;48.854;8.830;2023-07-29T01:59:50;1.70;;;1.50;;
2029;SDS011;1020;48.854;8.830;2023-07-29T02:02:17;5.73;;;3.37;;
2029;SDS011;1020;48.854;8.830;2023-07-29T02:04:44;2.63;;;2.47;;
2029;SDS011;1020;48.854;8.830;2023-07-29T02:07:16;3.03;;;2.83;;
2029;SDS011;1020;48.854;8.830;2023-07-29T02:09:43;3.80;;;3.50;;
2029;SDS011;1020;48.854;8.830;2023-07-29T02:12:09;2.60;;;2.47;;
2029;SDS011;1020;48.854;8.830;2023-07-29T02:14:37;3.80;;;3.07;;
2029;SDS011;1020;48.854;8.830;2023-07-29T02:17:04;2.23;;;2.03;;
2029;SDS011;1020;48.854;8.830;2023-07-29T02:19:31;3.63;;;2.77;;
2029;SDS011;1020;48.854;8.830;2023-07-29T02:21:58;3.10;;;2.60;;
2029;SDS011;1020;48.854;8.830;2023-07-29T02:24:25;3.23;;;2.60;;
2029;SDS011;1020;48.854;8.830;2023-07-29T02:26:51;4.00;;;2.40;;
2029;SDS011;1020;48.854;8.830;2023-07-29T02:29:18;1.70;;;1.60;;
2029;SDS011;1020;48.854;8.830;2023-07-29T02:31:46;2.20;;;1.50;;
2029;SDS011;1020;48.854;8.830;2023-07-29T02:34:13;2.33;;;2.13;;
2029;SDS011;1020;48.854;8.830;2023-07-29T02:36:40;1.70;;;1.60;;
2029;SDS011;1020;48.854;8.830;2023-07-29T02:39:07;1.30;;;1.30;;
2029;SDS011;1020;48.854;8.830;2023-07-29T02:41:33;2.10;;;1.30;;
2029;SDS011;1020;48.854;8.830;2023-07-29T02:44:01;1.30;;;1.20;;
2029;SDS011;1020;48.854;8.830;2023-07-29T02:46:28;1.57;;;1.47;;
2029;SDS011;1020;48.854;8.830;2023-07-29T02:48:56;1.70;;;1.60;;
2029;SDS011;1020;48.854;8.830;2023-07-29T02:51:23;1.73;;;1.63;;
2029;SDS011;1020;48.854;8.830;2023-07-29T02:53:50;3.00;;;1.80;;
2029;SDS011;1020;48.854;8.830;2023-07-29T02:56:17;1.63;;;1.53;;
2029;SDS011;1020;48.854;8.830;2023-07-29T02:58:44;1.80;;;1.70;;
2029;SDS011;1020;48.854;8.830;2023-07-29T03:01:10;1.30;;;1.13;;
2029;SDS011;1020;48.854;8.830;2023-07-29T03:03:37;1.50;;;1.40;;
2029;SDS011;1020;48.854;8.830;2023-07-29T03:06:07;1.37;;;1.27;;
2029;SDS011;1020;48.854;8.830;2023-07-29T03:08:35;1.30;;;1.20;;
2029;SDS011;1020;48.854;8.830;2023-07-29T03:11:05;1.50;;;1.40;;
2029;SDS011;1020;48.854;8.830;2023-07-29T03:13:34;2.20;;;1.50;;
2029;SDS011;1020;48.854;8.830;2023-07-29T03:16:04;1.80;;;1.70;;
2029;SDS011;1020;48.854;8.830;2023-07-29T03:18:31;1.60;;;1.50;;
2029;SDS011;1020;48.854;8.830;2023-07-29T03:20:58;1.20;;;1.10;;
2029;SDS011;1020;48.854;8.830;2023-07-29T03:23:27;1.33;;;1.23;;
2029;SDS011;1020;48.854;8.830;2023-07-29T03:25:54;3.00;;;1.50;;
2029;SDS011;1020;48.854;8.830;2023-07-29T03:28:23;1.00;;;1.00;;
2029;SDS011;1020;48.854;8.830;2023-07-29T03:30:49;1.83;;;1.53;;
2029;SDS011;1020;48.854;8.830;2023-07-29T03:33:16;1.40;;;1.30;;
2029;SDS011;1020;48.854;8.830;2023-07-29T03:35:43;2.60;;;1.57;;
2029;SDS011;1020;48.854;8.830;2023-07-29T03:38:10;1.50;;;1.40;;
2029;SDS011;1020;48.854;8.830;2023-07-29T03:40:38;1.50;;;1.40;;
2029;SDS011;1020;48.854;8.830;2023-07-29T03:43:05;1.40;;;1.30;;
2029;SDS011;1020;48.854;8.830;2023-07-29T03:45:32;2.50;;;2.30;;
2029;SDS011;1020;48.854;8.830;2023-07-29T03:47:59;1.80;;;1.30;;
2029;SDS011;1020;48.854;8.830;2023-07-29T03:50:25;1.63;;;1.53;;
2029;SDS011;1020;48.854;8.830;2023-07-29T03:52:53;2.40;;;1.80;;
2029;SDS011;1020;48.854;8.830;2023-07-29T03:55:19;1.60;;;1.50;;
2029;SDS011;1020;48.854;8.830;2023-07-29T03:57:48;1.63;;;1.53;;
2029;SDS011;1020;48.854;8.830;2023-07-29T04:00:14;1.60;;;1.50;;
2029;SDS011;1020;48.854;8.830;2023-07-29T04:02:41;1.50;;;1.40;;
2029;SDS011;1020;48.854;8.830;2023-07-29T04:05:10;1.60;;;1.50;;
2029;SDS011;1020;48.854;8.830;2023-07-29T04:07:37;1.50;;;1.40;;
2029;SDS011;1020;48.854;8.830;2023-07-29T04:10:05;2.83;;;1.77;;
2029;SDS011;1020;48.854;8.830;2023-07-29T04:12:33;2.33;;;1.70;;
2029;SDS011;1020;48.854;8.830;2023-07-29T04:15:01;4.67;;;1.93;;
2029;SDS011;1020;48.854;8.830;2023-07-29T04:17:28;2.33;;;1.70;;
2029;SDS011;1020;48.854;8.830;2023-07-29T04:19:54;4.03;;;2.40;;
2029;SDS011;1020;48.854;8.830;2023-07-29T04:22:21;4.67;;;1.70;;
2029;SDS011;1020;48.854;8.830;2023-07-29T04:24:48;3.03;;;1.93;;
2029;SDS011;1020;48.854;8.830;2023-07-29T04:27:15;2.03;;;1.83;;
2029;SDS011;1020;48.854;8.830;2023-07-29T04:29:41;5.70;;;2.33;;
2029;SDS011;1020;48.854;8.830;2023-07-29T04:32:09;9.30;;;2.67;;
2029;SDS011;1020;48.854;8.830;2023-07-29T04:34:36;2.67;;;2.57;;
2029;SDS011;1020;48.854;8.830;2023-07-29T04:37:03;4.73;;;2.90;;
2029;SDS011;1020;48.854;8.830;2023-07-29T04:39:30;3.07;;;2.87;;
2029;SDS011;1020;48.854;8.830;2023-07-29T04:41:58;2.40;;;2.00;;
2029;SDS011;1020;48.854;8.830;2023-07-29T04:44:25;2.00;;;1.90;;
2029;SDS011;1020;48.854;8.830;2023-07-29T04:46:52;2.20;;;2.00;;
2029;SDS011;1020;48.854;8.830;2023-07-29T04:49:20;3.63;;;2.67;;
2029;SDS011;1020;48.854;8.830;2023-07-29T04:51:47;3.40;;;2.23;;
2029;SDS011;1020;48.854;8.830;2023-07-29T04:54:14;2.50;;;2.03;;
2029;SDS011;1020;48.854;8.830;2023-07-29T04:56:40;2.30;;;2.20;;
2029;SDS011;1020;48.854;8.830;2023-07-29T04:59:07;2.60;;;2.10;;
2029;SDS011;1020;48.854;8.830;2023-07-29T05:01:34;3.07;;;2.70;;
2029;SDS011;1020;48.854;8.830;2023-07-29T05:04:01;2.93;;;2.50;;
2029;SDS011;1020;48.854;8.830;2023-07-29T05:06:29;2.27;;;2.10;;
2029;SDS011;1020;48.854;8.830;2023-07-29T05:08:56;2.90;;;2.70;;
2029;SDS011;1020;48.854;8.830;2023-07-29T05:11:23;2.53;;;2.13;;
2029;SDS011;1020;48.854;8.830;2023-07-29T05:13:50;3.63;;;2.60;;
2029;SDS011;1020;48.854;8.830;2023-07-29T05:16:17;3.03;;;2.83;;
2029;SDS011;1020;48.854;8.830;2023-07-29T05:18:44;2.40;;;2.20;;
2029;SDS011;1020;48.854;8.830;2023-07-29T05:21:11;4.97;;;2.33;;
2029;SDS011;1020;48.854;8.830;2023-07-29T05:23:40;2.47;;;2.30;;
2029;SDS011;1020;48.854;8.830;2023-07-29T05:26:07;5.50;;;1.97;;
2029;SDS011;1020;48.854;8.830;2023-07-29T05:28:34;2.47;;;2.33;;
2029;SDS011;1020;48.854;8.830;2023-07-29T05:31:00;1.90;;;1.80;;
2029;SDS011;1020;48.854;8.830;2023-07-29T05:33:27;2.70;;;2.47;;
2029;SDS011;1020;48.854;8.830;2023-07-29T05:35:54;2.53;;;2.30;;
2029;SDS011;1020;48.854;8.830;2023-07-29T05:38:21;3.00;;;2.63;;
2029;SDS011;1020;48.854;8.830;2023-07-29T05:40:49;2.60;;;2.40;;
2029;SDS011;1020;48.854;8.830;2023-07-29T05:43:16;2.53;;;2.33;;
2029;SDS011;1020;48.854;8.830;2023-07-29T05:45:42;3.03;;;2.83;;
2029;SDS011;1020;48.854;8.830;2023-07-29T05:48:09;1.80;;;1.70;;
2029;SDS011;1020;48.854;8.830;2023-07-29T05:50:36;2.27;;;2.10;;
2029;SDS011;1020;48.854;8.830;2023-07-29T05:53:03;2.20;;;2.10;;
2029;SDS011;1020;48.854;8.830;2023-07-29T05:55:29;2.07;;;1.97;;
2029;SDS011;1020;48.854;8.830;2023-07-29T05:57:57;1.83;;;1.73;;
2029;SDS011;1020;48.854;8.830;2023-07-29T06:00:24;1.03;;;1.03;;
2029;SDS011;1020;48.854;8.830;2023-07-29T06:02:51;1.90;;;1.80;;
2029;SDS011;1020;48.854;8.830;2023-07-29T06:05:17;1.50;;;1.20;;
2029;SDS011;1020;48.854;8.830;2023-07-29T06:07:44;1.40;;;1.30;;
2029;SDS011;1020;48.854;8.830;2023-07-29T06:10:13;2.00;;;1.90;;
2029;SDS011;1020;48.854;8.830;2023-07-29T06:12:42;2.47;;;2.30;;
2029;SDS011;1020;48.854;8.830;2023-07-29T06:15:10;4.10;;;3.73;;
2029;SDS011;1020;48.854;8.830;2023-07-29T06:17:38;3.07;;;2.87;;
2029;SDS011;1020;48.854;8.830;2023-07-29T06:20:05;2.43;;;1.87;;
2029;SDS011;1020;48.854;8.830;2023-07-29T06:22:32;1.67;;;1.57;;
2029;SDS011;1020;48.854;8.830;2023-07-29T06:24:59;1.87;;;1.60;;
2029;SDS011;1020;48.854;8.830;2023-07-29T06:27:25;1.30;;;1.30;;
2029;SDS011;1020;48.854;8.830;2023-07-29T06:29:52;2.20;;;1.53;;
2029;SDS011;1020;48.854;8.830;2023-07-29T06:32:20;1.70;;;1.60;;
2029;SDS011;1020;48.854;8.830;2023-07-29T06:34:47;1.93;;;1.77;;
2029;SDS011;1020;48.854;8.830;2023-07-29T06:37:14;2.60;;;2.10;;
2029;SDS011;1020;48.854;8.830;2023-07-29T06:39:41;2.57;;;2.47;;
2029;SDS011;1020;48.854;8.830;2023-07-29T06:42:07;3.53;;;1.90;;
2029;SDS011;1020;48.854;8.830;2023-07-29T06:44:34;1.27;;;1.17;;
2029;SDS011;1020;48.854;8.830;2023-07-29T06:47:01;2.20;;;1.70;;
2029;SDS011;1020;48.854;8.830;2023-07-29T06:49:29;2.17;;;2.07;;
2029;SDS011;1020;48.854;8.830;2023-07-29T06:51:56;2.40;;;2.10;;
2029;SDS011;1020;48.854;8.830;2023-07-29T06:54:23;3.60;;;1.70;;
2029;SDS011;1020;48.854;8.830;2023-07-29T06:56:50;2.33;;;2.23;;
2029;SDS011;1020;48.854;8.830;2023-07-29T06:59:17;2.30;;;2.20;;
2029;SDS011;1020;48.854;8.830;2023-07-29T07:01:44;3.23;;;1.50;;
2029;SDS011;1020;48.854;8.830;2023-07-29T07:04:10;1.60;;;1.50;;
2029;SDS011;1020;48.854;8.830;2023-07-29T07:06:38;1.60;;;1.50;;
2029;SDS011;1020;48.854;8.830;2023-07-29T07:09:05;2.10;;;2.00;;
2029;SDS011;1020;48.854;8.830;2023-07-29T07:11:32;1.60;;;1.50;;
2029;SDS011;1020;48.854;8.830;2023-07-29T07:13:59;1.53;;;1.43;;
2029;SDS011;1020;48.854;8.830;2023-07-29T07:16:25;1.60;;;1.50;;
2029;SDS011;1020;48.854;8.830;2023-07-29T07:18:54;1.57;;;1.47;;
2029;SDS011;1020;48.854;8.830;2023-07-29T07:21:21;1.30;;;1.13;;
2029;SDS011;1020;48.854;8.830;2023-07-29T07:23:50;2.07;;;1.40;;
2029;SDS011;1020;48.854;8.830;2023-07-29T07:26:17;1.53;;;1.43;;
2029;SDS011;1020;48.854;8.830;2023-07-29T07:28:43;1.37;;;1.27;;
2029;SDS011;1020;48.854;8.830;2023-07-29T07:31:10;1.40;;;1.30;;
2029;SDS011;1020;48.854;8.830;2023-07-29T07:33:37;1.10;;;1.00;;
2029;SDS011;1020;48.854;8.830;2023-07-29T07:36:04;1.03;;;1.03;;
2029;SDS011;1020;48.854;8.830;2023-07-29T07:38:31;2.30;;;1.40;;
2029;SDS011;1020;48.854;8.830;2023-07-29T07:40:59;1.77;;;1.20;;
2029;SDS011;1020;48.854;8.830;2023-07-29T07:43:26;1.07;;;1.07;;
2029;SDS011;1020;48.854;8.830;2023-07-29T07:45:57;1.90;;;1.17;;
2029;SDS011;1020;48.854;8.830;2023-07-29T07:48:24;2.30;;;1.10;;
2029;SDS011;1020;48.854;8.830;2023-07-29T07:50:51;1.27;;;1.17;;
2029;SDS011;1020;48.854;8.830;2023-07-29T07:53:18;1.77;;;1.03;;
2029;SDS011;1020;48.854;8.830;2023-07-29T07:55:45;0.83;;;0.83;;
2029;SDS011;1020;48.854;8.830;2023-07-29T07:58:13;0.70;;;0.70;;
2029;SDS011;1020;48.854;8.830;2023-07-29T08:00:40;0.60;;;0.60;;
2029;SDS011;1020;48.854;8.830;2023-07-29T08:03:07;0.77;;;0.77;;
2029;SDS011;1020;48.854;8.830;2023-07-29T08:05:33;1.03;;;0.93;;
2029;SDS011;1020;48.854;8.830;2023-07-29T08:08:00;1.27;;;1.07;;
2029;SDS011;1020;48.854;8.830;2023-07-29T08:10:27;1.43;;;0.90;;
2029;SDS011;1020;48.854;8.830;2023-07-29T08:12:55;1.00;;;1.00;;
2029;SDS011;1020;48.854;8.830;2023-07-29T08:15:23;0.90;;;0.90;;
2029;SDS011;1020;48.854;8.830;2023-07-29T08:17:49;1.17;;;1.17;;
2029;SDS011;1020;48.854;8.830;2023-07-29T08:20:16;1.37;;;1.10;;
2029;SDS011;1020;48.854;8.830;2023-07-29T08:22:43;1.10;;;0.90;;
2029;SDS011;1020;48.854;8.830;2023-07-29T08:25:10;1.30;;;1.20;;
2029;SDS011;1020;48.854;8.830;2023-07-29T08:27:37;1.00;;;1.00;;
2029;SDS011;1020;48.854;8.830;2023-07-29T08:30:04;0.93;;;0.93;;
2029;SDS011;1020;48.854;8.830;2023-07-29T08:32:33;1.30;;;1.13;;
2029;SDS011;1020;48.854;8.830;2023-07-29T08:35:00;1.90;;;1.23;;
2029;SDS011;1020;48.854;8.830;2023-07-29T08:37:27;1.03;;;1.00;;
2029;SDS011;1020;48.854;8.830;2023-07-29T08:39:54;0.87;;;0.87;;
2029;SDS011;1020;48.854;8.830;2023-07-29T08:42:21;0.93;;;0.93;;
2029;SDS011;1020;48.854;8.830;2023-07-29T08:44:53;0.97;;;0.97;;
2029;SDS011;1020;48.854;8.830;2023-07-29T08:47:20;0.73;;;0.73;;
2029;SDS011;1020;48.854;8.830;2023-07-29T08:49:48;0.97;;;0.97;;
2029;SDS011;1020;48.854;8.830;2023-07-29T08:52:18;0.70;;;0.70;;
2029;SDS011;1020;48.854;8.830;2023-07-29T08:54:45;0.87;;;0.83;;
2029;SDS011;1020;48.854;8.830;2023-07-29T08:57:12;0.90;;;0.83;;
2029;SDS011;1020;48.854;8.830;2023-07-29T08:59:40;1.03;;;1.00;;
2029;SDS011;1020;48.854;8.830;2023-07-29T09:02:07;0.83;;;0.83;;
2029;SDS011;1020;48.854;8.830;2023-07-29T09:04:34;0.93;;;0.93;;
2029;SDS011;1020;48.854;8.830;2023-07-29T09:07:02;0.80;;;0.80;;
2029;SDS011;1020;48.854;8.830;2023-07-29T09:09:31;1.10;;;1.10;;
2029;SDS011;1020;48.854;8.830;2023-07-29T09:11:58;1.30;;;1.10;;
2029;SDS011;1020;48.854;8.830;2023-07-29T09:14:25;1.43;;;1.07;;
2029;SDS011;1020;48.854;8.830;2023-07-29T09:16:52;1.23;;;0.83;;
2029;SDS011;1020;48.854;8.830;2023-07-29T09:19:20;1.33;;;1.10;;
2029;SDS011;1020;48.854;8.830;2023-07-29T09:21:46;1.33;;;1.23;;
2029;SDS011;1020;48.854;8.830;2023-07-29T09:24:16;1.27;;;0.70;;
2029;SDS011;1020;48.854;8.830;2023-07-29T09:26:48;1.23;;;1.13;;
2029;SDS011;1020;48.854;8.830;2023-07-29T09:29:15;1.00;;;1.00;;
2029;SDS011;1020;48.854;8.830;2023-07-29T09:31:47;0.90;;;0.90;;
2029;SDS011;1020;48.854;8.830;2023-07-29T09:34:14;1.37;;;1.10;;
2029;SDS011;1020;48.854;8.830;2023-07-29T09:36:42;1.30;;;1.20;;
2029;SDS011;1020;48.854;8.830;2023-07-29T09:39:10;2.63;;;1.23;;
2029;SDS011;1020;48.854;8.830;2023-07-29T09:41:39;1.00;;;1.00;;
2029;SDS011;1020;48.854;8.830;2023-07-29T09:44:06;1.27;;;1.20;;
2029;SDS011;1020;48.854;8.830;2023-07-29T09:46:35;1.00;;;1.00;;
2029;SDS011;1020;48.854;8.830;2023-07-29T09:49:03;2.03;;;1.40;;
2029;SDS011;1020;48.854;8.830;2023-07-29T09:51:31;1.20;;;1.10;;
2029;SDS011;1020;48.854;8.830;2023-07-29T09:53:57;3.70;;;1.27;;
2029;SDS011;1020;48.854;8.830;2023-07-29T09:56:28;0.80;;;0.80;;
2029;SDS011;1020;48.854;8.830;2023-07-29T09:58:57;1.20;;;1.20;;
2029;SDS011;1020;48.854;8.830;2023-07-29T10:01:24;1.13;;;1.03;;
2029;SDS011;1020;48.854;8.830;2023-07-29T10:03:51;1.40;;;1.30;;
2029;SDS011;1020;48.854;8.830;2023-07-29T10:06:21;1.30;;;1.30;;
2029;SDS011;1020;48.854;8.830;2023-07-29T10:08:49;1.90;;;1.17;;
2029;SDS011;1020;48.854;8.830;2023-07-29T10:11:17;0.80;;;0.80;;
2029;SDS011;1020;48.854;8.830;2023-07-29T10:13:47;0.87;;;0.87;;
2029;SDS011;1020;48.854;8.830;2023-07-29T10:16:15;1.27;;;1.10;;
2029;SDS011;1020;48.854;8.830;2023-07-29T10:18:44;0.60;;;0.60;;
2029;SDS011;1020;48.854;8.830;2023-07-29T10:21:11;0.90;;;0.90;;
2029;SDS011;1020;48.854;8.830;2023-07-29T10:23:42;0.90;;;0.90;;
2029;SDS011;1020;48.854;8.830;2023-07-29T10:26:11;0.80;;;0.80;;
2029;SDS011;1020;48.854;8.830;2023-07-29T10:28:43;1.20;;;1.20;;
2029;SDS011;1020;48.854;8.830;2023-07-29T10:31:16;1.10;;;1.10;;
2029;SDS011;1020;48.854;8.830;2023-07-29T10:33:43;0.80;;;0.80;;
2029;SDS011;1020;48.854;8.830;2023-07-29T10:36:10;2.27;;;0.80;;
2029;SDS011;1020;48.854;8.830;2023-07-29T10:38:38;1.43;;;0.73;;
2029;SDS011;1020;48.854;8.830;2023-07-29T10:41:06;0.90;;;0.90;;
2029;SDS011;1020;48.854;8.830;2023-07-29T10:43:33;1.43;;;0.97;;
2029;SDS011;1020;48.854;8.830;2023-07-29T10:46:16;1.70;;;0.70;;
2029;SDS011;1020;48.854;8.830;2023-07-29T10:48:44;0.73;;;0.73;;
2029;SDS011;1020;48.854;8.830;2023-07-29T10:51:21;1.00;;;0.90;;
2029;SDS011;1020;48.854;8.830;2023-07-29T10:53:54;0.93;;;0.90;;
2029;SDS011;1020;48.854;8.830;2023-07-29T10:56:29;0.97;;;0.90;;
2029;SDS011;1020;48.854;8.830;2023-07-29T10:58:57;0.60;;;0.60;;
2029;SDS011;1020;48.854;8.830;2023-07-29T11:01:29;0.70;;;0.70;;
2029;SDS011;1020;48.854;8.830;2023-07-29T11:09:57;1.27;;;1.00;;
2029;SDS011;1020;48.854;8.830;2023-07-29T11:12:38;0.90;;;0.90;;
2029;SDS011;1020;48.854;8.830;2023-07-29T11:15:23;0.70;;;0.70;;
2029;SDS011;1020;48.854;8.830;2023-07-29T11:17:52;0.80;;;0.80;;
2029;SDS011;1020;48.854;8.830;2023-07-29T11:20:20;0.73;;;0.73;;
2029;SDS011;1020;48.854;8.830;2023-07-29T11:22:49;1.07;;;0.90;;
2029;SDS011;1020;48.854;8.830;2023-07-29T11:25:16;2.10;;;1.00;;
2029;SDS011;1020;48.854;8.830;2023-07-29T11:27:44;1.00;;;1.00;;
2029;SDS011;1020;48.854;8.830;2023-07-29T11:30:12;0.87;;;0.87;;
2029;SDS011;1020;48.854;8.830;2023-07-29T11:32:41;1.10;;;1.00;;
2029;SDS011;1020;48.854;8.830;2023-07-29T11:35:11;1.30;;;1.20;;
2029;SDS011;1020;48.854;8.830;2023-07-29T11:37:40;1.00;;;1.00;;
2029;SDS011;1020;48.854;8.830;2023-07-29T11:40:08;0.97;;;0.97;;
2029;SDS011;1020;48.854;8.830;2023-07-29T11:42:36;1.10;;;1.10;;
2029;SDS011;1020;48.854;8.830;2023-07-29T11:45:04;1.07;;;1.00;;
2029;SDS011;1020;48.854;8.830;2023-07-29T11:47:32;0.80;;;0.80;;
2029;SDS011;1020;48.854;8.830;2023-07-29T11:50:02;1.20;;;0.80;;
2029;SDS011;1020;48.854;8.830;2023-07-29T11:52:32;1.93;;;1.30;;
2029;SDS011;1020;48.854;8.830;2023-07-29T11:54:59;1.20;;;1.20;;
2029;SDS011;1020;48.854;8.830;2023-07-29T11:57:27;1.00;;;1.00;;
2029;SDS011;1020;48.854;8.830;2023-07-29T11:59:54;1.57;;;1.10;;
2029;SDS011;1020;48.854;8.830;2023-07-29T12:02:21;1.60;;;1.17;;
2029;SDS011;1020;48.854;8.830;2023-07-29T12:04:50;2.97;;;1.47;;
2029;SDS011;1020;48.854;8.830;2023-07-29T12:07:17;1.10;;;1.03;;
2029;SDS011;1020;48.854;8.830;2023-07-29T12:09:46;1.20;;;1.20;;
2029;SDS011;1020;48.854;8.830;2023-07-29T12:12:13;1.07;;;1.07;;
2029;SDS011;1020;48.854;8.830;2023-07-29T12:14:43;1.40;;;1.30;;
2029;SDS011;1020;48.854;8.830;2023-07-29T12:17:11;1.40;;;1.30;;
2029;SDS011;1020;48.854;8.830;2023-07-29T12:19:39;1.20;;;1.20;;
2029;SDS011;1020;48.854;8.830;2023-07-29T12:22:07;1.27;;;1.20;;
2029;SDS011;1020;48.854;8.830;2023-07-29T12:24:36;1.20;;;1.20;;
2029;SDS011;1020;48.854;8.830;2023-07-29T12:27:09;1.80;;;1.70;;
2029;SDS011;1020;48.854;8.830;2023-07-29T12:29:39;2.23;;;1.40;;
2029;SDS011;1020;48.854;8.830;2023-07-29T12:32:08;1.33;;;1.23;;
2029;SDS011;1020;48.854;8.830;2023-07-29T12:34:35;1.40;;;1.30;;
2029;SDS011;1020;48.854;8.830;2023-07-29T12:37:04;1.43;;;1.33;;
2029;SDS011;1020;48.854;8.830;2023-07-29T12:39:32;1.40;;;1.30;;
2029;SDS011;1020;48.854;8.830;2023-07-29T12:42:00;1.40;;;1.30;;
2029;SDS011;1020;48.854;8.830;2023-07-29T12:44:31;1.00;;;1.00;;
2029;SDS011;1020;48.854;8.830;2023-07-29T12:46:59;1.70;;;1.60;;
2029;SDS011;1020;48.854;8.830;2023-07-29T12:49:26;1.50;;;1.40;;
2029;SDS011;1020;48.854;8.830;2023-07-29T12:51:54;1.90;;;1.77;;
2029;SDS011;1020;48.854;8.830;2023-07-29T12:54:21;1.47;;;1.37;;
2029;SDS011;1020;48.854;8.830;2023-07-29T12:56:48;1.40;;;1.30;;
2029;SDS011;1020;48.854;8.830;2023-07-29T12:59:15;1.27;;;1.17;;
2029;SDS011;1020;48.854;8.830;2023-07-29T13:01:43;1.10;;;1.10;;
2029;SDS011;1020;48.854;8.830;2023-07-29T13:04:10;1.70;;;1.57;;
2029;SDS011;1020;48.854;8.830;2023-07-29T13:06:37;2.83;;;1.23;;
2029;SDS011;1020;48.854;8.830;2023-07-29T13:09:04;1.50;;;1.40;;
2029;SDS011;1020;48.854;8.830;2023-07-29T13:11:31;1.43;;;1.30;;
2029;SDS011;1020;48.854;8.830;2023-07-29T13:13:58;1.27;;;1.20;;
2029;SDS011;1020;48.854;8.830;2023-07-29T13:16:25;1.60;;;1.33;;
2029;SDS011;1020;48.854;8.830;2023-07-29T13:18:54;1.33;;;1.23;;
2029;SDS011;1020;48.854;8.830;2023-07-29T13:21:21;1.40;;;1.30;;
2029;SDS011;1020;48.854;8.830;2023-07-29T13:23:47;1.33;;;1.23;;
2029;SDS011;1020;48.854;8.830;2023-07-29T13:26:14;1.57;;;1.47;;
2029;SDS011;1020;48.854;8.830;2023-07-29T13:28:41;1.30;;;1.27;;
2029;SDS011;1020;48.854;8.830;2023-07-29T13:31:07;1.40;;;1.30;;
2029;SDS011;1020;48.854;8.830;2023-07-29T13:33:34;1.90;;;1.80;;
2029;SDS011;1020;48.854;8.830;2023-07-29T13:36:02;1.40;;;1.30;;
2029;SDS011;1020;48.854;8.830;2023-07-29T13:38:30;1.10;;;1.10;;
2029;SDS011;1020;48.854;8.830;2023-07-29T13:40:56;1.43;;;1.33;;
2029;SDS011;1020;48.854;8.830;2023-07-29T13:43:23;3.63;;;1.50;;
2029;SDS011;1020;48.854;8.830;2023-07-29T13:45:50;2.27;;;1.27;;
2029;SDS011;1020;48.854;8.830;2023-07-29T13:48:17;1.87;;;1.53;;
2029;SDS011;1020;48.854;8.830;2023-07-29T13:50:44;1.43;;;1.33;;
2029;SDS011;1020;48.854;8.830;2023-07-29T13:53:12;1.07;;;1.07;;
2029;SDS011;1020;48.854;8.830;2023-07-29T13:55:39;1.40;;;1.17;;
2029;SDS011;1020;48.854;8.830;2023-07-29T13:58:06;1.57;;;1.47;;
2029;SDS011;1020;48.854;8.830;2023-07-29T14:00:33;1.43;;;1.33;;
2029;SDS011;1020;48.854;8.830;2023-07-29T14:02:59;1.03;;;1.03;;
2029;SDS011;1020;48.854;8.830;2023-07-29T14:05:26;1.50;;;1.40;;
2029;SDS011;1020;48.854;8.830;2023-07-29T14:07:53;1.10;;;1.10;;
2029;SDS011;1020;48.854;8.830;2023-07-29T14:10:21;1.27;;;1.10;;
2029;SDS011;1020;48.854;8.830;2023-07-29T14:12:48;1.60;;;1.50;;
2029;SDS011;1020;48.854;8.830;2023-07-29T14:15:15;1.70;;;1.60;;
2029;SDS011;1020;48.854;8.830;2023-07-29T14:17:42;1.40;;;1.30;;
2029;SDS011;1020;48.854;8.830;2023-07-29T14:20:09;1.03;;;1.03;;
2029;SDS011;1020;48.854;8.830;2023-07-29T14:22:36;1.43;;;1.33;;
2029;SDS011;1020;48.854;8.830;2023-07-29T14:25:03;1.83;;;1.67;;
2029;SDS011;1020;48.854;8.830;2023-07-29T14:27:32;1.70;;;1.60;;
2029;SDS011;1020;48.854;8.830;2023-07-29T14:29:59;1.70;;;1.60;;
2029;SDS011;1020;48.854;8.830;2023-07-29T14:32:26;2.27;;;2.07;;
2029;SDS011;1020;48.854;8.830;2023-07-29T14:34:53;1.40;;;1.30;;
2029;SDS011;1020;48.854;8.830;2023-07-29T14:37:20;1.93;;;1.83;;
2029;SDS011;1020;48.854;8.830;2023-07-29T14:39:47;1.67;;;1.57;;
2029;SDS011;1020;48.854;8.830;2023-07-29T14:42:13;1.47;;;1.37;;
2029;SDS011;1020;48.854;8.830;2023-07-29T14:44:42;1.20;;;1.20;;
2029;SDS011;1020;48.854;8.830;2023-07-29T14:47:09;1.30;;;1.27;;
2029;SDS011;1020;48.854;8.830;2023-07-29T14:49:35;2.00;;;1.90;;
2029;SDS011;1020;48.854;8.830;2023-07-29T14:52:02;1.57;;;1.53;;
2029;SDS011;1020;48.854;8.830;2023-07-29T14:54:29;1.57;;;1.47;;
2029;SDS011;1020;48.854;8.830;2023-07-29T14:56:56;1.73;;;1.63;;
2029;SDS011;1020;48.854;8.830;2023-07-29T14:59:23;1.50;;;1.40;;
2029;SDS011;1020;48.854;8.830;2023-07-29T15:01:51;1.50;;;1.40;;
2029;SDS011;1020;48.854;8.830;2023-07-29T15:04:18;1.67;;;1.57;;
2029;SDS011;1020;48.854;8.830;2023-07-29T15:06:45;1.60;;;1.50;;
2029;SDS011;1020;48.854;8.830;2023-07-29T15:09:11;2.03;;;1.93;;
2029;SDS011;1020;48.854;8.830;2023-07-29T15:11:38;1.27;;;1.23;;
2029;SDS011;1020;48.854;8.830;2023-07-29T15:14:05;5.17;;;1.93;;
2029;SDS011;1020;48.854;8.830;2023-07-29T15:16:32;1.80;;;1.70;;
2029;SDS011;1020;48.854;8.830;2023-07-29T15:19:01;1.80;;;1.70;;
2029;SDS011;1020;48.854;8.830;2023-07-29T15:21:29;1.77;;;1.67;;
2029;SDS011;1020;48.854;8.830;2023-07-29T15:23:58;2.00;;;1.90;;